sensor_id;sensor_type;location;lat;lon;timestamp;pressure;altitude;pressure_sealevel;temperature;humidity
64628;BME280;59036;50.960;0.314;2022-12-15T00:01:16;99093.23;;;-4.21;100.00
64628;BME280;59036;50.960;0.314;2022-12-15T00:03:43;99088.01;;;-4.41;100.00
64628;BME280;59036;50.960;0.314;2022-12-15T00:06:09;99087.17;;;-4.20;100.00
64628;BME280;59036;50.960;0.314;2022-12-15T00:08:37;99090.41;;;-4.63;100.00
64628;BME280;59036;50.960;0.314;2022-12-15T00:11:04;99091.19;;;-4.18;100.00
64628;BME280;59036;50.960;0.314;2022-12-15T00:13:31;99093.58;;;-4.44;100.00
64628;BME280;59036;50.960;0.314;2022-12-15T00:15:59;99093.90;;;-4.69;100.00
64628;BME280;59036;50.960;0.314;2022-12-15T00:18:26;99088.63;;;-4.87;100.00
64628;BME280;59036;50.960;0.314;2022-12-15T00:20:56;99082.67;;;-4.51;100.00
64628;BME280;59036;50.960;0.314;2022-12-15T00:23:24;99079.60;;;-5.14;100.00
64628;BME280;59036;50.960;0.314;2022-12-15T00:25:52;99078.68;;;-4.71;100.00
64628;BME280;59036;50.960;0.314;2022-12-15T00:28:19;99077.78;;;-4.03;100.00
64628;BME280;59036;50.960;0.314;2022-12-15T00:30:46;99076.24;;;-5.11;100.00
64628;BME280;59036;50.960;0.314;2022-12-15T00:33:13;99073.57;;;-4.53;100.00
64628;BME280;59036;50.960;0.314;2022-12-15T00:35:41;99069.51;;;-4.09;100.00
64628;BME280;59036;50.960;0.314;2022-12-15T00:38:11;99066.42;;;-4.33;100.00
64628;BME280;59036;50.960;0.314;2022-12-15T00:40:38;99064.03;;;-4.90;100.00
64628;BME280;59036;50.960;0.314;2022-12-15T00:43:05;99066.37;;;-4.64;100.00
64628;BME280;59036;50.960;0.314;2022-12-15T00:45:33;99067.88;;;-4.19;100.00
64628;BME280;59036;50.960;0.314;2022-12-15T00:48:00;99071.65;;;-4.62;100.00
64628;BME280;59036;50.960;0.314;2022-12-15T00:50:27;99071.79;;;-4.44;100.00
64628;BME280;59036;50.960;0.314;2022-12-15T00:52:54;99074.93;;;-4.36;100.00
64628;BME280;59036;50.960;0.314;2022-12-15T00:55:22;99079.74;;;-4.09;100.00
64628;BME280;59036;50.960;0.314;2022-12-15T00:57:49;99077.51;;;-4.05;100.00
64628;BME280;59036;50.960;0.314;2022-12-15T01:00:16;99082.04;;;-4.13;100.00
64628;BME280;59036;50.960;0.314;2022-12-15T01:02:44;99086.46;;;-4.37;100.00
64628;BME280;59036;50.960;0.314;2022-12-15T01:05:11;99083.37;;;-5.19;100.00
64628;BME280;59036;50.960;0.314;2022-12-15T01:07:38;99085.04;;;-5.01;100.00
64628;BME280;59036;50.960;0.314;2022-12-15T01:10:06;99085.11;;;-4.98;100.00
64628;BME280;59036;50.960;0.314;2022-12-15T01:12:33;99085.46;;;-5.20;100.00
64628;BME280;59036;50.960;0.314;2022-12-15T01:15:00;99090.47;;;-4.49;100.00
64628;BME280;59036;50.960;0.314;2022-12-15T01:17:27;99092.36;;;-4.99;100.00
64628;BME280;59036;50.960;0.314;2022-12-15T01:19:54;99091.61;;;-5.47;100.00
64628;BME280;59036;50.960;0.314;2022-12-15T01:22:21;99089.30;;;-5.00;100.00
64628;BME280;59036;50.960;0.314;2022-12-15T01:24:49;99086.78;;;-4.92;100.00
64628;BME280;59036;50.960;0.314;2022-12-15T01:27:16;99088.65;;;-4.66;100.00
64628;BME280;59036;50.960;0.314;2022-12-15T01:29:43;99095.19;;;-5.41;100.00
64628;BME280;59036;50.960;0.314;2022-12-15T01:32:11;99102.01;;;-5.41;100.00
64628;BME280;59036;50.960;0.314;2022-12-15T01:34:39;99101.37;;;-4.70;100.00
64628;BME280;59036;50.960;0.314;2022-12-15T01:37:06;99102.31;;;-5.05;100.00
64628;BME280;59036;50.960;0.314;2022-12-15T01:39:33;99105.03;;;-5.16;100.00
64628;BME280;59036;50.960;0.314;2022-12-15T01:42:00;99107.86;;;-5.07;100.00
64628;BME280;59036;50.960;0.314;2022-12-15T01:44:27;99110.50;;;-5.03;100.00
64628;BME280;59036;50.960;0.314;2022-12-15T01:46:55;99113.46;;;-4.93;100.00
64628;BME280;59036;50.960;0.314;2022-12-15T01:49:24;99115.23;;;-4.68;100.00
64628;BME280;59036;50.960;0.314;2022-12-15T01:51:57;99117.34;;;-5.30;100.00
64628;BME280;59036;50.960;0.314;2022-12-15T01:54:29;99118.66;;;-5.44;100.00
64628;BME280;59036;50.960;0.314;2022-12-15T01:57:02;99119.62;;;-5.42;100.00
64628;BME280;59036;50.960;0.314;2022-12-15T01:59:33;99123.96;;;-5.82;100.00
64628;BME280;59036;50.960;0.314;2022-12-15T02:02:02;99123.60;;;-5.18;100.00
64628;BME280;59036;50.960;0.314;2022-12-15T02:04:30;99125.98;;;-5.20;100.00
64628;BME280;59036;50.960;0.314;2022-12-15T02:06:58;99132.99;;;-5.74;100.00
64628;BME280;59036;50.960;0.314;2022-12-15T02:09:26;99136.39;;;-5.20;100.00
64628;BME280;59036;50.960;0.314;2022-12-15T02:12:00;99142.22;;;-5.42;100.00
64628;BME280;59036;50.960;0.314;2022-12-15T02:14:40;99145.00;;;-5.76;100.00
64628;BME280;59036;50.960;0.314;2022-12-15T02:17:19;99135.53;;;-5.18;100.00
64628;BME280;59036;50.960;0.314;2022-12-15T02:20:25;99138.18;;;-5.21;100.00
64628;BME280;59036;50.960;0.314;2022-12-15T02:25:44;99149.13;;;-4.29;100.00
64628;BME280;59036;50.960;0.314;2022-12-15T02:28:25;99147.92;;;-5.13;100.00
64628;BME280;59036;50.960;0.314;2022-12-15T02:31:00;99149.56;;;-5.77;100.00
64628;BME280;59036;50.960;0.314;2022-12-15T02:33:31;99144.33;;;-5.43;100.00
64628;BME280;59036;50.960;0.314;2022-12-15T02:36:05;99141.89;;;-5.30;100.00
64628;BME280;59036;50.960;0.314;2022-12-15T02:38:36;99142.97;;;-5.49;100.00
64628;BME280;59036;50.960;0.314;2022-12-15T02:41:04;99145.67;;;-5.78;100.00
64628;BME280;59036;50.960;0.314;2022-12-15T02:43:35;99141.44;;;-5.29;100.00
64628;BME280;59036;50.960;0.314;2022-12-15T02:46:20;99139.82;;;-5.52;100.00
64628;BME280;59036;50.960;0.314;2022-12-15T02:48:58;99134.76;;;-5.52;100.00
64628;BME280;59036;50.960;0.314;2022-12-15T02:51:37;99130.25;;;-5.21;100.00
64628;BME280;59036;50.960;0.314;2022-12-15T02:54:22;99135.94;;;-5.26;100.00
64628;BME280;59036;50.960;0.314;2022-12-15T02:57:00;99142.52;;;-5.26;100.00
64628;BME280;59036;50.960;0.314;2022-12-15T02:59:38;99136.58;;;-5.05;100.00
64628;BME280;59036;50.960;0.314;2022-12-15T03:02:08;99138.21;;;-5.06;100.00
64628;BME280;59036;50.960;0.314;2022-12-15T03:04:38;99137.51;;;-5.10;100.00
64628;BME280;59036;50.960;0.314;2022-12-15T03:07:08;99135.77;;;-4.95;100.00
64628;BME280;59036;50.960;0.314;2022-12-15T03:09:36;99138.75;;;-6.07;100.00
64628;BME280;59036;50.960;0.314;2022-12-15T03:12:03;99138.01;;;-5.25;100.00
64628;BME280;59036;50.960;0.314;2022-12-15T03:14:30;99136.11;;;-4.96;100.00
64628;BME280;59036;50.960;0.314;2022-12-15T03:16:58;99132.97;;;-5.42;100.00
64628;BME280;59036;50.960;0.314;2022-12-15T03:19:25;99133.18;;;-5.17;100.00
64628;BME280;59036;50.960;0.314;2022-12-15T03:21:52;99134.16;;;-5.01;100.00
64628;BME280;59036;50.960;0.314;2022-12-15T03:24:19;99132.05;;;-5.02;100.00
64628;BME280;59036;50.960;0.314;2022-12-15T03:26:46;99134.36;;;-5.34;100.00
64628;BME280;59036;50.960;0.314;2022-12-15T03:29:13;99136.59;;;-5.23;100.00
64628;BME280;59036;50.960;0.314;2022-12-15T03:31:40;99134.13;;;-5.21;100.00
64628;BME280;59036;50.960;0.314;2022-12-15T03:34:08;99136.52;;;-5.32;100.00
64628;BME280;59036;50.960;0.314;2022-12-15T03:36:35;99143.29;;;-5.87;100.00
64628;BME280;59036;50.960;0.314;2022-12-15T03:39:02;99144.42;;;-5.29;100.00
64628;BME280;59036;50.960;0.314;2022-12-15T03:41:29;99146.98;;;-5.28;100.00
64628;BME280;59036;50.960;0.314;2022-12-15T03:43:56;99151.49;;;-5.49;100.00
64628;BME280;59036;50.960;0.314;2022-12-15T03:46:23;99154.21;;;-5.32;100.00
64628;BME280;59036;50.960;0.314;2022-12-15T03:48:50;99156.11;;;-5.05;100.00
64628;BME280;59036;50.960;0.314;2022-12-15T03:51:18;99155.89;;;-5.71;100.00
64628;BME280;59036;50.960;0.314;2022-12-15T03:53:45;99155.52;;;-5.32;100.00
64628;BME280;59036;50.960;0.314;2022-12-15T03:56:12;99157.90;;;-5.08;100.00
64628;BME280;59036;50.960;0.314;2022-12-15T03:58:39;99159.60;;;-5.77;100.00
64628;BME280;59036;50.960;0.314;2022-12-15T04:01:10;99160.10;;;-5.37;100.00
64628;BME280;59036;50.960;0.314;2022-12-15T04:03:37;99159.47;;;-5.17;100.00
64628;BME280;59036;50.960;0.314;2022-12-15T04:06:05;99160.83;;;-4.51;100.00
64628;BME280;59036;50.960;0.314;2022-12-15T04:08:33;99162.43;;;-5.33;100.00
64628;BME280;59036;50.960;0.314;2022-12-15T04:11:00;99165.20;;;-4.92;100.00
64628;BME280;59036;50.960;0.314;2022-12-15T04:13:27;99169.74;;;-5.07;100.00
64628;BME280;59036;50.960;0.314;2022-12-15T04:15:54;99171.43;;;-5.07;100.00
64628;BME280;59036;50.960;0.314;2022-12-15T04:18:21;99170.92;;;-4.84;100.00
64628;BME280;59036;50.960;0.314;2022-12-15T04:20:48;99171.95;;;-5.11;100.00
64628;BME280;59036;50.960;0.314;2022-12-15T04:23:15;99168.67;;;-5.04;100.00
64628;BME280;59036;50.960;0.314;2022-12-15T04:25:43;99173.25;;;-5.28;100.00
64628;BME280;59036;50.960;0.314;2022-12-15T04:28:11;99169.74;;;-5.55;100.00
64628;BME280;59036;50.960;0.314;2022-12-15T04:30:41;99166.87;;;-5.01;100.00
64628;BME280;59036;50.960;0.314;2022-12-15T04:33:10;99161.04;;;-5.31;100.00
64628;BME280;59036;50.960;0.314;2022-12-15T04:35:37;99160.88;;;-4.91;100.00
64628;BME280;59036;50.960;0.314;2022-12-15T04:38:05;99160.72;;;-4.75;100.00
64628;BME280;59036;50.960;0.314;2022-12-15T04:40:32;99158.01;;;-4.88;100.00
64628;BME280;59036;50.960;0.314;2022-12-15T04:42:59;99157.74;;;-5.46;100.00
64628;BME280;59036;50.960;0.314;2022-12-15T04:45:26;99164.65;;;-5.57;100.00
64628;BME280;59036;50.960;0.314;2022-12-15T04:47:54;99169.60;;;-5.41;100.00
64628;BME280;59036;50.960;0.314;2022-12-15T04:50:21;99168.32;;;-5.54;100.00
64628;BME280;59036;50.960;0.314;2022-12-15T04:52:48;99171.76;;;-5.55;100.00
64628;BME280;59036;50.960;0.314;2022-12-15T04:55:16;99168.83;;;-5.59;100.00
64628;BME280;59036;50.960;0.314;2022-12-15T04:57:43;99163.31;;;-5.45;100.00
64628;BME280;59036;50.960;0.314;2022-12-15T05:00:11;99164.11;;;-5.71;100.00
64628;BME280;59036;50.960;0.314;2022-12-15T05:02:38;99162.85;;;-5.31;100.00
64628;BME280;59036;50.960;0.314;2022-12-15T05:05:06;99164.99;;;-5.21;100.00
64628;BME280;59036;50.960;0.314;2022-12-15T05:07:33;99165.75;;;-5.54;100.00
64628;BME280;59036;50.960;0.314;2022-12-15T05:10:01;99166.43;;;-5.18;100.00
64628;BME280;59036;50.960;0.314;2022-12-15T05:12:29;99165.56;;;-4.95;100.00
64628;BME280;59036;50.960;0.314;2022-12-15T05:14:56;99167.26;;;-5.50;100.00
64628;BME280;59036;50.960;0.314;2022-12-15T05:17:23;99167.80;;;-5.50;100.00
64628;BME280;59036;50.960;0.314;2022-12-15T05:19:51;99165.94;;;-5.55;100.00
64628;BME280;59036;50.960;0.314;2022-12-15T05:22:18;99166.16;;;-5.53;100.00
64628;BME280;59036;50.960;0.314;2022-12-15T05:24:46;99169.68;;;-5.93;100.00
64628;BME280;59036;50.960;0.314;2022-12-15T05:27:13;99172.40;;;-6.04;100.00
64628;BME280;59036;50.960;0.314;2022-12-15T05:29:40;99166.95;;;-5.73;100.00
64628;BME280;59036;50.960;0.314;2022-12-15T05:32:08;99160.75;;;-5.18;100.00
64628;BME280;59036;50.960;0.314;2022-12-15T05:34:36;99165.99;;;-5.39;100.00
64628;BME280;59036;50.960;0.314;2022-12-15T05:37:04;99164.02;;;-5.49;100.00
64628;BME280;59036;50.960;0.314;2022-12-15T05:39:31;99163.93;;;-5.38;100.00
64628;BME280;59036;50.960;0.314;2022-12-15T05:41:59;99168.27;;;-5.83;100.00
64628;BME280;59036;50.960;0.314;2022-12-15T05:44:27;99164.89;;;-5.48;100.00
64628;BME280;59036;50.960;0.314;2022-12-15T05:46:54;99168.32;;;-5.50;100.00
64628;BME280;59036;50.960;0.314;2022-12-15T05:49:21;99172.54;;;-5.41;100.00
64628;BME280;59036;50.960;0.314;2022-12-15T05:51:48;99175.38;;;-5.73;100.00
64628;BME280;59036;50.960;0.314;2022-12-15T05:54:17;99170.46;;;-5.32;100.00
64628;BME280;59036;50.960;0.314;2022-12-15T05:56:46;99167.62;;;-5.01;100.00
64628;BME280;59036;50.960;0.314;2022-12-15T05:59:14;99171.71;;;-4.98;100.00
64628;BME280;59036;50.960;0.314;2022-12-15T06:01:41;99172.27;;;-5.42;100.00
64628;BME280;59036;50.960;0.314;2022-12-15T06:04:09;99176.87;;;-5.28;100.00
64628;BME280;59036;50.960;0.314;2022-12-15T06:06:37;99175.39;;;-5.04;100.00
64628;BME280;59036;50.960;0.314;2022-12-15T06:09:05;99177.77;;;-5.23;100.00
64628;BME280;59036;50.960;0.314;2022-12-15T06:11:32;99181.33;;;-5.79;100.00
64628;BME280;59036;50.960;0.314;2022-12-15T06:13:59;99184.53;;;-5.81;100.00
64628;BME280;59036;50.960;0.314;2022-12-15T06:16:26;99186.82;;;-5.79;100.00
64628;BME280;59036;50.960;0.314;2022-12-15T06:19:00;99189.27;;;-5.80;100.00
64628;BME280;59036;50.960;0.314;2022-12-15T06:21:30;99185.72;;;-5.63;100.00
64628;BME280;59036;50.960;0.314;2022-12-15T06:23:57;99192.37;;;-5.46;100.00
64628;BME280;59036;50.960;0.314;2022-12-15T06:26:27;99189.59;;;-5.56;100.00
64628;BME280;59036;50.960;0.314;2022-12-15T06:28:57;99191.48;;;-5.52;100.00
64628;BME280;59036;50.960;0.314;2022-12-15T06:31:25;99193.26;;;-5.72;100.00
64628;BME280;59036;50.960;0.314;2022-12-15T06:33:53;99195.83;;;-5.67;100.00
64628;BME280;59036;50.960;0.314;2022-12-15T06:36:21;99195.96;;;-5.95;100.00
64628;BME280;59036;50.960;0.314;2022-12-15T06:38:50;99199.96;;;-5.51;100.00
64628;BME280;59036;50.960;0.314;2022-12-15T06:41:19;99203.28;;;-5.38;100.00
64628;BME280;59036;50.960;0.314;2022-12-15T06:43:48;99203.21;;;-5.67;100.00
64628;BME280;59036;50.960;0.314;2022-12-15T06:46:16;99203.16;;;-5.92;100.00
64628;BME280;59036;50.960;0.314;2022-12-15T06:48:44;99201.62;;;-5.82;100.00
64628;BME280;59036;50.960;0.314;2022-12-15T06:51:12;99207.39;;;-5.99;100.00
64628;BME280;59036;50.960;0.314;2022-12-15T06:53:41;99209.63;;;-6.47;100.00
64628;BME280;59036;50.960;0.314;2022-12-15T06:56:15;99215.82;;;-6.08;100.00
64628;BME280;59036;50.960;0.314;2022-12-15T06:58:43;99218.49;;;-6.12;100.00
64628;BME280;59036;50.960;0.314;2022-12-15T07:01:11;99220.49;;;-5.88;100.00
64628;BME280;59036;50.960;0.314;2022-12-15T07:03:38;99224.11;;;-5.84;100.00
64628;BME280;59036;50.960;0.314;2022-12-15T07:06:08;99225.91;;;-6.03;100.00
64628;BME280;59036;50.960;0.314;2022-12-15T07:08:36;99224.91;;;-6.03;100.00
64628;BME280;59036;50.960;0.314;2022-12-15T07:11:04;99231.19;;;-6.24;100.00
64628;BME280;59036;50.960;0.314;2022-12-15T07:13:33;99230.84;;;-5.81;100.00
64628;BME280;59036;50.960;0.314;2022-12-15T07:16:00;99232.56;;;-5.82;100.00
64628;BME280;59036;50.960;0.314;2022-12-15T07:18:29;99233.73;;;-5.68;100.00
64628;BME280;59036;50.960;0.314;2022-12-15T07:20:56;99232.15;;;-5.72;100.00
64628;BME280;59036;50.960;0.314;2022-12-15T07:23:27;99233.15;;;-5.64;100.00
64628;BME280;59036;50.960;0.314;2022-12-15T07:25:55;99238.14;;;-5.56;100.00
64628;BME280;59036;50.960;0.314;2022-12-15T07:28:22;99236.59;;;-5.27;100.00
64628;BME280;59036;50.960;0.314;2022-12-15T07:30:49;99239.52;;;-5.42;100.00
64628;BME280;59036;50.960;0.314;2022-12-15T07:33:16;99234.00;;;-5.53;100.00
64628;BME280;59036;50.960;0.314;2022-12-15T07:35:51;99231.41;;;-5.63;100.00
64628;BME280;59036;50.960;0.314;2022-12-15T07:38:19;99226.80;;;-5.70;100.00
64628;BME280;59036;50.960;0.314;2022-12-15T07:40:46;99225.70;;;-6.13;100.00
64628;BME280;59036;50.960;0.314;2022-12-15T07:43:13;99225.20;;;-5.96;100.00
64628;BME280;59036;50.960;0.314;2022-12-15T07:45:41;99231.13;;;-5.52;100.00
64628;BME280;59036;50.960;0.314;2022-12-15T07:48:08;99235.19;;;-5.46;100.00
64628;BME280;59036;50.960;0.314;2022-12-15T07:50:36;99244.43;;;-5.55;100.00
64628;BME280;59036;50.960;0.314;2022-12-15T07:53:03;99244.18;;;-5.50;100.00
64628;BME280;59036;50.960;0.314;2022-12-15T07:55:30;99246.94;;;-5.31;100.00
64628;BME280;59036;50.960;0.314;2022-12-15T07:57:57;99251.56;;;-5.53;100.00
64628;BME280;59036;50.960;0.314;2022-12-15T08:00:25;99253.21;;;-5.79;100.00
64628;BME280;59036;50.960;0.314;2022-12-15T08:02:52;99254.52;;;-5.67;100.00
64628;BME280;59036;50.960;0.314;2022-12-15T08:05:18;99253.29;;;-5.32;100.00
64628;BME280;59036;50.960;0.314;2022-12-15T08:07:46;99257.20;;;-5.83;100.00
64628;BME280;59036;50.960;0.314;2022-12-15T08:10:13;99262.68;;;-6.25;100.00
64628;BME280;59036;50.960;0.314;2022-12-15T08:12:40;99267.62;;;-5.67;100.00
64628;BME280;59036;50.960;0.314;2022-12-15T08:15:08;99271.41;;;-5.94;100.00
64628;BME280;59036;50.960;0.314;2022-12-15T08:17:36;99276.60;;;-5.50;100.00
64628;BME280;59036;50.960;0.314;2022-12-15T08:20:04;99277.43;;;-5.48;100.00
64628;BME280;59036;50.960;0.314;2022-12-15T08:22:32;99282.68;;;-6.06;100.00
64628;BME280;59036;50.960;0.314;2022-12-15T08:24:59;99283.15;;;-5.65;100.00
64628;BME280;59036;50.960;0.314;2022-12-15T08:27:26;99284.37;;;-5.74;100.00
64628;BME280;59036;50.960;0.314;2022-12-15T08:29:54;99288.23;;;-5.87;100.00
64628;BME280;59036;50.960;0.314;2022-12-15T08:32:21;99293.40;;;-5.74;100.00
64628;BME280;59036;50.960;0.314;2022-12-15T08:34:48;99295.76;;;-5.73;100.00
64628;BME280;59036;50.960;0.314;2022-12-15T08:37:15;99291.84;;;-6.16;100.00
64628;BME280;59036;50.960;0.314;2022-12-15T08:39:42;99296.26;;;-6.22;100.00
64628;BME280;59036;50.960;0.314;2022-12-15T08:42:09;99298.60;;;-5.96;100.00
64628;BME280;59036;50.960;0.314;2022-12-15T08:44:36;99299.99;;;-5.74;100.00
64628;BME280;59036;50.960;0.314;2022-12-15T08:47:03;99299.79;;;-5.76;100.00
64628;BME280;59036;50.960;0.314;2022-12-15T08:49:30;99304.37;;;-5.89;100.00
64628;BME280;59036;50.960;0.314;2022-12-15T08:51:57;99309.94;;;-5.74;100.00
64628;BME280;59036;50.960;0.314;2022-12-15T08:54:24;99311.26;;;-5.66;100.00
64628;BME280;59036;50.960;0.314;2022-12-15T08:56:52;99314.78;;;-6.11;100.00
64628;BME280;59036;50.960;0.314;2022-12-15T08:59:19;99317.05;;;-6.22;100.00
64628;BME280;59036;50.960;0.314;2022-12-15T09:01:46;99317.19;;;-5.94;100.00
64628;BME280;59036;50.960;0.314;2022-12-15T09:04:13;99320.80;;;-6.02;100.00
64628;BME280;59036;50.960;0.314;2022-12-15T09:06:40;99325.08;;;-6.42;100.00
64628;BME280;59036;50.960;0.314;2022-12-15T09:09:11;99325.12;;;-6.14;100.00
64628;BME280;59036;50.960;0.314;2022-12-15T09:11:38;99331.68;;;-5.62;100.00
64628;BME280;59036;50.960;0.314;2022-12-15T09:14:06;99334.94;;;-5.63;100.00
64628;BME280;59036;50.960;0.314;2022-12-15T09:16:33;99335.92;;;-6.18;100.00
64628;BME280;59036;50.960;0.314;2022-12-15T09:19:01;99335.72;;;-5.66;100.00
64628;BME280;59036;50.960;0.314;2022-12-15T09:21:29;99341.55;;;-5.34;100.00
64628;BME280;59036;50.960;0.314;2022-12-15T09:23:58;99345.97;;;-5.24;99.37
64628;BME280;59036;50.960;0.314;2022-12-15T09:26:27;99349.47;;;-5.71;100.00
64628;BME280;59036;50.960;0.314;2022-12-15T09:28:56;99352.07;;;-5.97;100.00
64628;BME280;59036;50.960;0.314;2022-12-15T09:31:25;99357.78;;;-5.64;100.00
64628;BME280;59036;50.960;0.314;2022-12-15T09:33:55;99358.71;;;-5.83;99.65
64628;BME280;59036;50.960;0.314;2022-12-15T09:36:23;99357.40;;;-5.02;98.35
64628;BME280;59036;50.960;0.314;2022-12-15T09:38:50;99359.59;;;-5.40;97.50
64628;BME280;59036;50.960;0.314;2022-12-15T09:41:20;99363.80;;;-5.19;97.53
64628;BME280;59036;50.960;0.314;2022-12-15T09:43:53;99367.80;;;-5.65;97.38
64628;BME280;59036;50.960;0.314;2022-12-15T09:46:26;99366.04;;;-5.49;98.33
64628;BME280;59036;50.960;0.314;2022-12-15T09:48:58;99366.22;;;-5.44;97.74
64628;BME280;59036;50.960;0.314;2022-12-15T09:51:32;99367.69;;;-5.16;97.10
64628;BME280;59036;50.960;0.314;2022-12-15T09:54:02;99367.58;;;-4.98;96.00
64628;BME280;59036;50.960;0.314;2022-12-15T09:56:39;99368.16;;;-5.22;95.82
64628;BME280;59036;50.960;0.314;2022-12-15T09:59:18;99365.33;;;-4.84;95.64
64628;BME280;59036;50.960;0.314;2022-12-15T10:01:57;99366.24;;;-4.41;94.47
64628;BME280;59036;50.960;0.314;2022-12-15T10:04:39;99367.91;;;-4.46;93.81
64628;BME280;59036;50.960;0.314;2022-12-15T10:07:16;99370.68;;;-4.33;94.00
64628;BME280;59036;50.960;0.314;2022-12-15T10:09:46;99371.67;;;-4.30;94.57
64628;BME280;59036;50.960;0.314;2022-12-15T10:12:18;99369.39;;;-4.22;93.50
64628;BME280;59036;50.960;0.314;2022-12-15T10:14:52;99367.39;;;-4.25;92.54
64628;BME280;59036;50.960;0.314;2022-12-15T10:17:22;99367.41;;;-4.30;92.78
64628;BME280;59036;50.960;0.314;2022-12-15T10:19:54;99368.42;;;-3.66;92.07
64628;BME280;59036;50.960;0.314;2022-12-15T10:22:29;99362.65;;;-3.76;92.09
64628;BME280;59036;50.960;0.314;2022-12-15T10:24:59;99364.67;;;-3.86;92.21
64628;BME280;59036;50.960;0.314;2022-12-15T10:27:42;99361.99;;;-3.22;91.08
64628;BME280;59036;50.960;0.314;2022-12-15T10:30:13;99361.88;;;-3.38;90.90
64628;BME280;59036;50.960;0.314;2022-12-15T10:32:46;99356.77;;;-3.24;89.70
64628;BME280;59036;50.960;0.314;2022-12-15T10:35:16;99360.16;;;-2.77;89.75
64628;BME280;59036;50.960;0.314;2022-12-15T10:37:44;99358.01;;;-3.37;89.25
64628;BME280;59036;50.960;0.314;2022-12-15T10:40:16;99356.37;;;-3.36;90.32
64628;BME280;59036;50.960;0.314;2022-12-15T10:42:46;99355.61;;;-2.98;89.09
64628;BME280;59036;50.960;0.314;2022-12-15T10:45:30;99356.37;;;-3.39;89.67
64628;BME280;59036;50.960;0.314;2022-12-15T10:48:00;99358.17;;;-2.88;89.26
64628;BME280;59036;50.960;0.314;2022-12-15T10:50:28;99355.25;;;-3.09;88.45
64628;BME280;59036;50.960;0.314;2022-12-15T10:52:56;99356.74;;;-2.88;87.95
64628;BME280;59036;50.960;0.314;2022-12-15T10:55:40;99358.52;;;-2.85;88.04
64628;BME280;59036;50.960;0.314;2022-12-15T10:58:16;99356.19;;;-2.33;86.55
64628;BME280;59036;50.960;0.314;2022-12-15T11:00:44;99351.19;;;-2.23;85.46
64628;BME280;59036;50.960;0.314;2022-12-15T11:03:25;99347.06;;;-2.32;85.73
64628;BME280;59036;50.960;0.314;2022-12-15T11:05:54;99345.84;;;-2.65;85.74
64628;BME280;59036;50.960;0.314;2022-12-15T11:08:23;99348.70;;;-2.20;86.51
64628;BME280;59036;50.960;0.314;2022-12-15T11:10:52;99351.52;;;-1.69;85.01
64628;BME280;59036;50.960;0.314;2022-12-15T11:13:21;99345.24;;;-1.60;84.44
64628;BME280;59036;50.960;0.314;2022-12-15T11:15:50;99344.26;;;-1.98;84.30
64628;BME280;59036;50.960;0.314;2022-12-15T11:18:33;99347.66;;;-1.82;84.52
64628;BME280;59036;50.960;0.314;2022-12-15T11:21:05;99347.33;;;-1.95;84.91
64628;BME280;59036;50.960;0.314;2022-12-15T11:23:46;99342.75;;;-1.15;83.66
64628;BME280;59036;50.960;0.314;2022-12-15T11:26:28;99343.22;;;-1.27;83.10
64628;BME280;59036;50.960;0.314;2022-12-15T11:29:06;99342.06;;;-0.77;81.28
64628;BME280;59036;50.960;0.314;2022-12-15T11:31:39;99338.16;;;-1.20;81.31
64628;BME280;59036;50.960;0.314;2022-12-15T11:34:12;99332.06;;;-0.93;81.61
64628;BME280;59036;50.960;0.314;2022-12-15T11:37:08;99332.83;;;-1.05;81.16
64628;BME280;59036;50.960;0.314;2022-12-15T11:39:50;99327.07;;;-0.25;79.85
64628;BME280;59036;50.960;0.314;2022-12-15T11:42:32;99323.90;;;-0.38;78.87
64628;BME280;59036;50.960;0.314;2022-12-15T11:45:06;99327.50;;;-1.09;78.41
64628;BME280;59036;50.960;0.314;2022-12-15T11:47:43;99323.74;;;-0.80;79.35
64628;BME280;59036;50.960;0.314;2022-12-15T11:50:20;99322.72;;;-0.24;79.31
64628;BME280;59036;50.960;0.314;2022-12-15T11:53:01;99317.72;;;0.19;77.65
64628;BME280;59036;50.960;0.314;2022-12-15T11:55:39;99314.19;;;0.81;76.25
64628;BME280;59036;50.960;0.314;2022-12-15T11:58:22;99316.62;;;0.29;75.60
64628;BME280;59036;50.960;0.314;2022-12-15T12:00:59;99314.68;;;0.16;77.03
64628;BME280;59036;50.960;0.314;2022-12-15T12:03:39;99314.04;;;0.69;77.01
64628;BME280;59036;50.960;0.314;2022-12-15T12:06:11;99313.66;;;0.28;76.67
64628;BME280;59036;50.960;0.314;2022-12-15T12:08:52;99313.76;;;0.55;76.84
64628;BME280;59036;50.960;0.314;2022-12-15T12:11:24;99312.60;;;0.34;76.21
64628;BME280;59036;50.960;0.314;2022-12-15T12:14:06;99314.44;;;0.83;75.64
64628;BME280;59036;50.960;0.314;2022-12-15T12:16:42;99310.88;;;0.97;76.39
64628;BME280;59036;50.960;0.314;2022-12-15T12:19:15;99314.92;;;1.21;74.92
64628;BME280;59036;50.960;0.314;2022-12-15T12:21:46;99312.77;;;0.87;74.85
64628;BME280;59036;50.960;0.314;2022-12-15T12:24:18;99309.10;;;1.36;73.74
64628;BME280;59036;50.960;0.314;2022-12-15T12:26:54;99308.38;;;-0.05;74.44
64628;BME280;59036;50.960;0.314;2022-12-15T12:29:29;99307.81;;;0.79;75.27
64628;BME280;59036;50.960;0.314;2022-12-15T12:32:04;99310.36;;;0.25;74.77
64628;BME280;59036;50.960;0.314;2022-12-15T12:34:43;99307.04;;;0.52;75.43
64628;BME280;59036;50.960;0.314;2022-12-15T12:37:21;99305.44;;;0.43;76.26
64628;BME280;59036;50.960;0.314;2022-12-15T12:39:51;99298.88;;;0.74;75.32
64628;BME280;59036;50.960;0.314;2022-12-15T12:42:27;99294.89;;;0.17;76.12
64628;BME280;59036;50.960;0.314;2022-12-15T12:45:00;99296.42;;;0.23;76.54
64628;BME280;59036;50.960;0.314;2022-12-15T12:47:30;99295.62;;;0.40;76.71
64628;BME280;59036;50.960;0.314;2022-12-15T12:50:02;99298.33;;;-0.14;78.74
64628;BME280;59036;50.960;0.314;2022-12-15T12:52:32;99289.32;;;0.09;77.06
64628;BME280;59036;50.960;0.314;2022-12-15T12:55:03;99287.88;;;0.15;77.96
64628;BME280;59036;50.960;0.314;2022-12-15T12:57:39;99285.52;;;0.09;77.91
64628;BME280;59036;50.960;0.314;2022-12-15T13:00:18;99286.79;;;-0.18;78.75
64628;BME280;59036;50.960;0.314;2022-12-15T13:03:08;99281.29;;;-0.28;80.20
64628;BME280;59036;50.960;0.314;2022-12-15T13:05:36;99286.29;;;-0.84;80.60
64628;BME280;59036;50.960;0.314;2022-12-15T13:08:18;99284.41;;;-0.74;80.99
64628;BME280;59036;50.960;0.314;2022-12-15T13:10:52;99277.93;;;-0.48;80.87